sensor_id;sensor_type;location;lat;lon;timestamp;P1;durP1;ratioP1;P2;durP2;ratioP2
7487;SDS011;3785;52.260;4.728;2023-11-22T00:00:35;7.70;;;4.28;;
7487;SDS011;3785;52.260;4.728;2023-11-22T00:03:55;5.95;;;3.95;;
7487;SDS011;3785;52.260;4.728;2023-11-22T00:07:16;9.20;;;5.00;;
7487;SDS011;3785;52.260;4.728;2023-11-22T00:10:37;9.13;;;4.70;;
7487;SDS011;3785;52.260;4.728;2023-11-22T00:13:58;8.50;;;4.43;;
7487;SDS011;3785;52.260;4.728;2023-11-22T00:17:18;9.10;;;5.03;;
7487;SDS011;3785;52.260;4.728;2023-11-22T00:20:39;7.97;;;4.18;;
7487;SDS011;3785;52.260;4.728;2023-11-22T00:23:59;8.65;;;4.65;;
7487;SDS011;3785;52.260;4.728;2023-11-22T00:27:20;7.40;;;4.35;;
7487;SDS011;3785;52.260;4.728;2023-11-22T00:30:41;7.55;;;4.32;;
7487;SDS011;3785;52.260;4.728;2023-11-22T00:34:02;14.18;;;5.38;;
7487;SDS011;3785;52.260;4.728;2023-11-22T00:37:23;9.05;;;5.00;;
7487;SDS011;3785;52.260;4.728;2023-11-22T00:40:43;7.78;;;4.68;;
7487;SDS011;3785;52.260;4.728;2023-11-22T00:44:04;9.75;;;4.60;;
7487;SDS011;3785;52.260;4.728;2023-11-22T00:47:26;8.48;;;4.18;;
7487;SDS011;3785;52.260;4.728;2023-11-22T00:50:46;6.68;;;4.15;;
7487;SDS011;3785;52.260;4.728;2023-11-22T00:54:07;7.72;;;4.72;;
7487;SDS011;3785;52.260;4.728;2023-11-22T00:57:27;7.65;;;4.53;;
7487;SDS011;3785;52.260;4.728;2023-11-22T01:00:50;7.80;;;4.80;;
7487;SDS011;3785;52.260;4.728;2023-11-22T01:04:10;9.05;;;4.82;;
7487;SDS011;3785;52.260;4.728;2023-11-22T01:07:31;10.70;;;5.18;;
7487;SDS011;3785;52.260;4.728;2023-11-22T01:10:52;7.72;;;5.00;;
7487;SDS011;3785;52.260;4.728;2023-11-22T01:14:12;9.93;;;5.22;;
7487;SDS011;3785;52.260;4.728;2023-11-22T01:17:33;8.93;;;5.25;;
7487;SDS011;3785;52.260;4.728;2023-11-22T01:20:54;7.65;;;4.32;;
7487;SDS011;3785;52.260;4.728;2023-11-22T01:24:15;8.23;;;4.65;;
7487;SDS011;3785;52.260;4.728;2023-11-22T01:27:36;7.90;;;4.88;;
7487;SDS011;3785;52.260;4.728;2023-11-22T01:30:57;7.93;;;5.10;;
7487;SDS011;3785;52.260;4.728;2023-11-22T01:34:17;7.88;;;4.28;;
7487;SDS011;3785;52.260;4.728;2023-11-22T01:37:38;7.85;;;4.35;;
7487;SDS011;3785;52.260;4.728;2023-11-22T01:40:58;7.15;;;4.32;;
7487;SDS011;3785;52.260;4.728;2023-11-22T01:44:20;6.55;;;4.47;;
7487;SDS011;3785;52.260;4.728;2023-11-22T01:47:41;8.32;;;4.80;;
7487;SDS011;3785;52.260;4.728;2023-11-22T01:51:02;7.22;;;4.57;;
7487;SDS011;3785;52.260;4.728;2023-11-22T01:54:23;8.73;;;5.28;;
7487;SDS011;3785;52.260;4.728;2023-11-22T01:57:44;9.60;;;6.03;;
7487;SDS011;3785;52.260;4.728;2023-11-22T02:01:05;10.05;;;5.45;;
7487;SDS011;3785;52.260;4.728;2023-11-22T02:04:25;9.18;;;5.60;;
7487;SDS011;3785;52.260;4.728;2023-11-22T02:07:46;8.00;;;5.57;;
7487;SDS011;3785;52.260;4.728;2023-11-22T02:11:07;9.00;;;6.45;;
7487;SDS011;3785;52.260;4.728;2023-11-22T02:14:28;10.00;;;6.07;;
7487;SDS011;3785;52.260;4.728;2023-11-22T02:17:48;6.78;;;4.50;;
7487;SDS011;3785;52.260;4.728;2023-11-22T02:21:09;8.93;;;5.22;;
7487;SDS011;3785;52.260;4.728;2023-11-22T02:24:30;7.25;;;3.90;;
7487;SDS011;3785;52.260;4.728;2023-11-22T02:27:53;7.78;;;4.70;;
7487;SDS011;3785;52.260;4.728;2023-11-22T02:31:13;7.38;;;4.20;;
7487;SDS011;3785;52.260;4.728;2023-11-22T02:34:34;9.60;;;4.80;;
7487;SDS011;3785;52.260;4.728;2023-11-22T02:37:55;8.05;;;4.90;;
7487;SDS011;3785;52.260;4.728;2023-11-22T02:41:15;7.47;;;4.28;;
7487;SDS011;3785;52.260;4.728;2023-11-22T02:44:36;8.13;;;4.55;;
7487;SDS011;3785;52.260;4.728;2023-11-22T02:47:57;8.48;;;4.53;;
7487;SDS011;3785;52.260;4.728;2023-11-22T02:51:19;8.13;;;4.95;;
7487;SDS011;3785;52.260;4.728;2023-11-22T02:54:44;7.55;;;4.38;;
7487;SDS011;3785;52.260;4.728;2023-11-22T02:58:08;9.05;;;5.55;;
7487;SDS011;3785;52.260;4.728;2023-11-22T03:01:28;10.35;;;5.70;;
7487;SDS011;3785;52.260;4.728;2023-11-22T03:04:52;8.82;;;5.80;;
7487;SDS011;3785;52.260;4.728;2023-11-22T03:08:13;8.85;;;5.70;;
7487;SDS011;3785;52.260;4.728;2023-11-22T03:11:36;9.18;;;5.30;;
7487;SDS011;3785;52.260;4.728;2023-11-22T03:14:56;7.70;;;5.10;;
7487;SDS011;3785;52.260;4.728;2023-11-22T03:18:21;7.70;;;5.35;;
7487;SDS011;3785;52.260;4.728;2023-11-22T03:21:42;7.95;;;4.95;;
7487;SDS011;3785;52.260;4.728;2023-11-22T03:25:04;9.57;;;5.40;;
7487;SDS011;3785;52.260;4.728;2023-11-22T03:28:24;8.73;;;5.35;;
7487;SDS011;3785;52.260;4.728;2023-11-22T03:31:45;8.15;;;5.05;;
7487;SDS011;3785;52.260;4.728;2023-11-22T03:35:07;7.28;;;4.03;;
7487;SDS011;3785;52.260;4.728;2023-11-22T03:38:28;8.93;;;4.32;;
7487;SDS011;3785;52.260;4.728;2023-11-22T03:41:49;7.05;;;4.47;;
7487;SDS011;3785;52.260;4.728;2023-11-22T03:45:10;7.50;;;4.88;;
7487;SDS011;3785;52.260;4.728;2023-11-22T03:48:33;7.00;;;4.35;;
7487;SDS011;3785;52.260;4.728;2023-11-22T03:51:54;10.60;;;5.43;;
7487;SDS011;3785;52.260;4.728;2023-11-22T03:55:14;10.05;;;5.22;;
7487;SDS011;3785;52.260;4.728;2023-11-22T03:58:35;7.57;;;4.57;;
7487;SDS011;3785;52.260;4.728;2023-11-22T04:01:56;9.20;;;4.82;;
7487;SDS011;3785;52.260;4.728;2023-11-22T04:05:17;10.73;;;5.53;;
7487;SDS011;3785;52.260;4.728;2023-11-22T04:08:39;9.07;;;5.03;;
7487;SDS011;3785;52.260;4.728;2023-11-22T04:12:00;9.38;;;5.20;;
7487;SDS011;3785;52.260;4.728;2023-11-22T04:15:20;9.20;;;5.80;;
7487;SDS011;3785;52.260;4.728;2023-11-22T04:18:41;11.07;;;6.40;;
7487;SDS011;3785;52.260;4.728;2023-11-22T04:22:03;9.45;;;5.53;;
7487;SDS011;3785;52.260;4.728;2023-11-22T04:25:23;10.60;;;6.10;;
7487;SDS011;3785;52.260;4.728;2023-11-22T04:28:44;12.23;;;5.97;;
7487;SDS011;3785;52.260;4.728;2023-11-22T04:32:05;13.45;;;6.50;;
7487;SDS011;3785;52.260;4.728;2023-11-22T04:35:25;13.75;;;7.45;;
7487;SDS011;3785;52.260;4.728;2023-11-22T04:38:46;15.65;;;6.85;;
7487;SDS011;3785;52.260;4.728;2023-11-22T04:42:06;11.45;;;6.15;;
7487;SDS011;3785;52.260;4.728;2023-11-22T04:45:27;14.13;;;7.65;;
7487;SDS011;3785;52.260;4.728;2023-11-22T04:48:47;12.63;;;6.30;;
7487;SDS011;3785;52.260;4.728;2023-11-22T04:52:11;12.00;;;5.95;;
7487;SDS011;3785;52.260;4.728;2023-11-22T04:55:32;10.75;;;5.95;;
7487;SDS011;3785;52.260;4.728;2023-11-22T04:58:52;13.45;;;6.63;;
7487;SDS011;3785;52.260;4.728;2023-11-22T05:02:13;13.13;;;5.97;;
7487;SDS011;3785;52.260;4.728;2023-11-22T05:05:33;12.43;;;6.75;;
7487;SDS011;3785;52.260;4.728;2023-11-22T05:08:54;12.63;;;6.60;;
7487;SDS011;3785;52.260;4.728;2023-11-22T05:12:15;13.82;;;7.07;;
7487;SDS011;3785;52.260;4.728;2023-11-22T05:15:35;11.32;;;6.22;;
7487;SDS011;3785;52.260;4.728;2023-11-22T05:18:56;11.40;;;5.90;;
7487;SDS011;3785;52.260;4.728;2023-11-22T05:22:17;11.20;;;6.20;;
7487;SDS011;3785;52.260;4.728;2023-11-22T05:25:37;12.55;;;7.28;;
7487;SDS011;3785;52.260;4.728;2023-11-22T05:28:58;13.68;;;6.70;;
7487;SDS011;3785;52.260;4.728;2023-11-22T05:32:19;16.75;;;6.78;;
7487;SDS011;3785;52.260;4.728;2023-11-22T05:35:39;11.32;;;6.00;;
7487;SDS011;3785;52.260;4.728;2023-11-22T05:39:01;10.80;;;6.07;;
7487;SDS011;3785;52.260;4.728;2023-11-22T05:42:25;10.98;;;6.18;;
7487;SDS011;3785;52.260;4.728;2023-11-22T05:45:45;10.95;;;5.82;;
7487;SDS011;3785;52.260;4.728;2023-11-22T05:49:09;10.70;;;5.88;;
7487;SDS011;3785;52.260;4.728;2023-11-22T05:52:33;14.05;;;6.38;;
7487;SDS011;3785;52.260;4.728;2023-11-22T05:55:53;10.32;;;6.10;;
7487;SDS011;3785;52.260;4.728;2023-11-22T05:59:14;9.95;;;6.00;;
7487;SDS011;3785;52.260;4.728;2023-11-22T06:02:34;13.20;;;6.60;;
7487;SDS011;3785;52.260;4.728;2023-11-22T06:05:56;11.30;;;5.95;;
7487;SDS011;3785;52.260;4.728;2023-11-22T06:09:17;11.73;;;5.93;;
7487;SDS011;3785;52.260;4.728;2023-11-22T06:12:38;10.68;;;6.15;;
7487;SDS011;3785;52.260;4.728;2023-11-22T06:15:58;12.52;;;6.22;;
7487;SDS011;3785;52.260;4.728;2023-11-22T06:19:19;14.10;;;6.05;;
7487;SDS011;3785;52.260;4.728;2023-11-22T06:22:39;10.38;;;5.97;;
7487;SDS011;3785;52.260;4.728;2023-11-22T06:26:02;12.98;;;5.63;;
7487;SDS011;3785;52.260;4.728;2023-11-22T06:29:22;10.45;;;6.22;;
7487;SDS011;3785;52.260;4.728;2023-11-22T06:32:44;12.27;;;6.13;;
7487;SDS011;3785;52.260;4.728;2023-11-22T06:36:04;13.95;;;5.00;;
7487;SDS011;3785;52.260;4.728;2023-11-22T06:39:25;11.20;;;6.53;;
7487;SDS011;3785;52.260;4.728;2023-11-22T06:42:46;11.10;;;5.63;;
7487;SDS011;3785;52.260;4.728;2023-11-22T06:46:07;12.35;;;6.57;;
7487;SDS011;3785;52.260;4.728;2023-11-22T06:49:28;11.50;;;6.90;;
7487;SDS011;3785;52.260;4.728;2023-11-22T06:52:49;11.50;;;6.15;;
7487;SDS011;3785;52.260;4.728;2023-11-22T06:56:10;12.45;;;6.65;;
7487;SDS011;3785;52.260;4.728;2023-11-22T06:59:31;10.85;;;6.25;;
7487;SDS011;3785;52.260;4.728;2023-11-22T07:02:51;11.05;;;6.40;;
7487;SDS011;3785;52.260;4.728;2023-11-22T07:06:12;14.32;;;6.68;;
7487;SDS011;3785;52.260;4.728;2023-11-22T07:09:32;14.45;;;6.63;;
7487;SDS011;3785;52.260;4.728;2023-11-22T07:12:53;13.85;;;7.32;;
7487;SDS011;3785;52.260;4.728;2023-11-22T07:16:13;10.90;;;6.22;;
7487;SDS011;3785;52.260;4.728;2023-11-22T07:19:35;11.35;;;6.40;;
7487;SDS011;3785;52.260;4.728;2023-11-22T07:22:58;12.43;;;6.75;;
7487;SDS011;3785;52.260;4.728;2023-11-22T07:26:20;15.25;;;6.35;;
7487;SDS011;3785;52.260;4.728;2023-11-22T07:29:41;12.27;;;6.80;;
7487;SDS011;3785;52.260;4.728;2023-11-22T07:33:01;11.70;;;6.25;;
7487;SDS011;3785;52.260;4.728;2023-11-22T07:36:22;10.73;;;6.53;;
7487;SDS011;3785;52.260;4.728;2023-11-22T07:39:43;11.50;;;6.28;;
7487;SDS011;3785;52.260;4.728;2023-11-22T07:43:04;15.07;;;7.00;;
7487;SDS011;3785;52.260;4.728;2023-11-22T07:46:25;14.85;;;6.88;;
7487;SDS011;3785;52.260;4.728;2023-11-22T07:49:47;13.23;;;6.75;;
7487;SDS011;3785;52.260;4.728;2023-11-22T07:53:08;12.50;;;6.75;;
7487;SDS011;3785;52.260;4.728;2023-11-22T07:56:29;10.60;;;6.05;;
7487;SDS011;3785;52.260;4.728;2023-11-22T07:59:52;12.73;;;6.35;;
7487;SDS011;3785;52.260;4.728;2023-11-22T08:03:15;12.88;;;7.43;;
7487;SDS011;3785;52.260;4.728;2023-11-22T08:06:38;13.73;;;5.68;;
7487;SDS011;3785;52.260;4.728;2023-11-22T08:09:58;14.00;;;6.43;;
7487;SDS011;3785;52.260;4.728;2023-11-22T08:13:29;12.27;;;6.68;;
7487;SDS011;3785;52.260;4.728;2023-11-22T08:16:51;12.77;;;6.88;;
7487;SDS011;3785;52.260;4.728;2023-11-22T08:20:11;12.73;;;7.05;;
7487;SDS011;3785;52.260;4.728;2023-11-22T08:23:35;14.15;;;6.97;;
7487;SDS011;3785;52.260;4.728;2023-11-22T08:26:57;15.85;;;6.45;;
7487;SDS011;3785;52.260;4.728;2023-11-22T08:30:18;12.10;;;6.82;;
7487;SDS011;3785;52.260;4.728;2023-11-22T08:33:39;14.13;;;6.78;;
7487;SDS011;3785;52.260;4.728;2023-11-22T08:37:00;11.48;;;6.25;;
7487;SDS011;3785;52.260;4.728;2023-11-22T08:40:20;15.85;;;7.80;;
7487;SDS011;3785;52.260;4.728;2023-11-22T08:43:41;14.50;;;7.22;;
7487;SDS011;3785;52.260;4.728;2023-11-22T08:47:02;16.48;;;7.60;;
7487;SDS011;3785;52.260;4.728;2023-11-22T08:50:23;12.23;;;6.43;;
7487;SDS011;3785;52.260;4.728;2023-11-22T08:53:44;12.18;;;6.65;;
7487;SDS011;3785;52.260;4.728;2023-11-22T08:57:04;13.48;;;6.80;;
7487;SDS011;3785;52.260;4.728;2023-11-22T09:00:26;12.60;;;7.00;;
7487;SDS011;3785;52.260;4.728;2023-11-22T09:03:48;11.85;;;6.88;;
7487;SDS011;3785;52.260;4.728;2023-11-22T09:07:10;15.13;;;7.32;;
7487;SDS011;3785;52.260;4.728;2023-11-22T09:10:30;17.60;;;8.10;;
7487;SDS011;3785;52.260;4.728;2023-11-22T09:13:51;13.18;;;7.28;;
7487;SDS011;3785;52.260;4.728;2023-11-22T09:17:13;15.25;;;7.10;;
7487;SDS011;3785;52.260;4.728;2023-11-22T09:20:34;15.25;;;7.60;;
7487;SDS011;3785;52.260;4.728;2023-11-22T09:23:54;12.80;;;6.75;;
7487;SDS011;3785;52.260;4.728;2023-11-22T09:27:15;13.93;;;6.97;;
7487;SDS011;3785;52.260;4.728;2023-11-22T09:30:38;13.57;;;7.05;;
7487;SDS011;3785;52.260;4.728;2023-11-22T09:34:03;13.50;;;7.78;;
7487;SDS011;3785;52.260;4.728;2023-11-22T09:37:23;18.00;;;7.88;;
7487;SDS011;3785;52.260;4.728;2023-11-22T09:40:45;14.20;;;7.95;;
7487;SDS011;3785;52.260;4.728;2023-11-22T09:44:06;11.15;;;6.90;;
7487;SDS011;3785;52.260;4.728;2023-11-22T09:47:32;15.98;;;7.88;;
7487;SDS011;3785;52.260;4.728;2023-11-22T09:54:21;16.27;;;7.78;;
7487;SDS011;3785;52.260;4.728;2023-11-22T09:57:44;15.52;;;7.53;;
7487;SDS011;3785;52.260;4.728;2023-11-22T10:01:05;13.60;;;7.95;;
7487;SDS011;3785;52.260;4.728;2023-11-22T10:04:27;17.77;;;8.32;;
7487;SDS011;3785;52.260;4.728;2023-11-22T10:07:51;15.15;;;7.70;;
7487;SDS011;3785;52.260;4.728;2023-11-22T10:11:12;16.65;;;8.43;;
7487;SDS011;3785;52.260;4.728;2023-11-22T10:14:38;16.10;;;7.50;;
7487;SDS011;3785;52.260;4.728;2023-11-22T10:17:59;13.75;;;8.50;;
7487;SDS011;3785;52.260;4.728;2023-11-22T10:21:26;14.55;;;7.30;;
7487;SDS011;3785;52.260;4.728;2023-11-22T10:24:48;13.52;;;7.35;;
7487;SDS011;3785;52.260;4.728;2023-11-22T10:28:09;14.70;;;8.07;;
7487;SDS011;3785;52.260;4.728;2023-11-22T10:31:29;16.27;;;8.35;;
7487;SDS011;3785;52.260;4.728;2023-11-22T10:34:50;17.98;;;8.10;;
7487;SDS011;3785;52.260;4.728;2023-11-22T10:38:13;13.68;;;7.18;;
7487;SDS011;3785;52.260;4.728;2023-11-22T10:41:34;14.13;;;8.05;;
7487;SDS011;3785;52.260;4.728;2023-11-22T10:44:58;15.10;;;7.85;;
7487;SDS011;3785;52.260;4.728;2023-11-22T10:48:22;15.43;;;7.57;;
7487;SDS011;3785;52.260;4.728;2023-11-22T10:51:47;14.05;;;7.80;;
7487;SDS011;3785;52.260;4.728;2023-11-22T10:55:12;14.65;;;7.47;;
7487;SDS011;3785;52.260;4.728;2023-11-22T10:58:35;14.30;;;7.75;;
7487;SDS011;3785;52.260;4.728;2023-11-22T11:02:00;15.30;;;7.78;;
7487;SDS011;3785;52.260;4.728;2023-11-22T11:05:24;15.20;;;6.73;;
7487;SDS011;3785;52.260;4.728;2023-11-22T11:08:48;13.20;;;7.30;;
7487;SDS011;3785;52.260;4.728;2023-11-22T11:12:09;13.05;;;7.07;;
7487;SDS011;3785;52.260;4.728;2023-11-22T11:15:31;11.73;;;6.85;;
7487;SDS011;3785;52.260;4.728;2023-11-22T11:18:52;13.00;;;7.57;;
7487;SDS011;3785;52.260;4.728;2023-11-22T11:22:13;13.32;;;7.47;;
7487;SDS011;3785;52.260;4.728;2023-11-22T11:25:33;13.80;;;7.70;;
7487;SDS011;3785;52.260;4.728;2023-11-22T11:28:54;14.45;;;7.70;;
7487;SDS011;3785;52.260;4.728;2023-11-22T11:32:15;14.07;;;7.43;;
7487;SDS011;3785;52.260;4.728;2023-11-22T11:35:50;12.68;;;7.25;;
7487;SDS011;3785;52.260;4.728;2023-11-22T11:39:12;13.68;;;7.35;;
7487;SDS011;3785;52.260;4.728;2023-11-22T11:42:34;12.43;;;7.07;;
7487;SDS011;3785;52.260;4.728;2023-11-22T11:45:55;12.43;;;7.03;;
7487;SDS011;3785;52.260;4.728;2023-11-22T11:49:15;11.15;;;6.63;;
7487;SDS011;3785;52.260;4.728;2023-11-22T11:52:38;13.15;;;7.25;;
7487;SDS011;3785;52.260;4.728;2023-11-22T11:55:59;12.45;;;7.13;;
7487;SDS011;3785;52.260;4.728;2023-11-22T11:59:21;11.18;;;7.53;;
7487;SDS011;3785;52.260;4.728;2023-11-22T12:02:42;11.27;;;6.88;;
7487;SDS011;3785;52.260;4.728;2023-11-22T12:06:03;10.10;;;6.28;;
7487;SDS011;3785;52.260;4.728;2023-11-22T12:09:25;11.63;;;6.65;;
7487;SDS011;3785;52.260;4.728;2023-11-22T12:12:48;11.80;;;6.90;;
7487;SDS011;3785;52.260;4.728;2023-11-22T12:16:09;11.23;;;6.68;;
7487;SDS011;3785;52.260;4.728;2023-11-22T12:19:33;13.75;;;7.25;;
7487;SDS011;3785;52.260;4.728;2023-11-22T12:22:54;12.18;;;6.78;;
7487;SDS011;3785;52.260;4.728;2023-11-22T12:26:16;11.13;;;7.00;;
7487;SDS011;3785;52.260;4.728;2023-11-22T12:29:39;15.00;;;6.55;;
7487;SDS011;3785;52.260;4.728;2023-11-22T12:33:02;12.48;;;6.88;;
7487;SDS011;3785;52.260;4.728;2023-11-22T12:36:23;12.02;;;6.93;;
7487;SDS011;3785;52.260;4.728;2023-11-22T12:39:43;11.20;;;6.38;;
7487;SDS011;3785;52.260;4.728;2023-11-22T12:43:06;11.25;;;6.63;;
7487;SDS011;3785;52.260;4.728;2023-11-22T12:46:28;8.43;;;5.40;;
7487;SDS011;3785;52.260;4.728;2023-11-22T12:50:05;8.15;;;4.82;;
7487;SDS011;3785;52.260;4.728;2023-11-22T12:53:27;6.70;;;4.57;;
7487;SDS011;3785;52.260;4.728;2023-11-22T12:56:48;7.82;;;4.88;;
7487;SDS011;3785;52.260;4.728;2023-11-22T13:00:10;9.35;;;5.13;;
7487;SDS011;3785;52.260;4.728;2023-11-22T13:03:31;7.03;;;4.28;;
7487;SDS011;3785;52.260;4.728;2023-11-22T13:06:53;8.48;;;4.50;;
7487;SDS011;3785;52.260;4.728;2023-11-22T13:10:13;8.57;;;5.15;;
7487;SDS011;3785;52.260;4.728;2023-11-22T13:13:36;8.05;;;4.70;;
7487;SDS011;3785;52.260;4.728;2023-11-22T13:16:57;9.00;;;5.90;;
7487;SDS011;3785;52.260;4.728;2023-11-22T13:20:17;8.85;;;5.28;;
7487;SDS011;3785;52.260;4.728;2023-11-22T13:23:39;7.95;;;4.65;;
7487;SDS011;3785;52.260;4.728;2023-11-22T13:27:00;8.07;;;4.88;;
7487;SDS011;3785;52.260;4.728;2023-11-22T13:30:21;7.72;;;5.35;;
7487;SDS011;3785;52.260;4.728;2023-11-22T13:33:45;8.50;;;5.03;;
7487;SDS011;3785;52.260;4.728;2023-11-22T13:37:07;7.38;;;4.57;;
7487;SDS011;3785;52.260;4.728;2023-11-22T13:40:27;7.78;;;5.13;;
7487;SDS011;3785;52.260;4.728;2023-11-22T13:43:51;6.57;;;4.28;;
7487;SDS011;3785;52.260;4.728;2023-11-22T13:47:12;7.53;;;4.97;;
7487;SDS011;3785;52.260;4.728;2023-11-22T13:50:36;7.60;;;4.65;;
7487;SDS011;3785;52.260;4.728;2023-11-22T13:53:56;7.65;;;4.63;;
7487;SDS011;3785;52.260;4.728;2023-11-22T13:57:17;8.25;;;4.55;;
7487;SDS011;3785;52.260;4.728;2023-11-22T14:00:38;7.18;;;4.22;;
7487;SDS011;3785;52.260;4.728;2023-11-22T14:09:22;7.45;;;4.43;;
7487;SDS011;3785;52.260;4.728;2023-11-22T14:12:43;6.60;;;4.43;;
7487;SDS011;3785;52.260;4.728;2023-11-22T14:16:04;7.00;;;4.13;;
7487;SDS011;3785;52.260;4.728;2023-11-22T14:19:25;8.57;;;4.78;;
7487;SDS011;3785;52.260;4.728;2023-11-22T14:22:46;8.45;;;4.70;;
7487;SDS011;3785;52.260;4.728;2023-11-22T14:26:08;7.32;;;4.65;;
7487;SDS011;3785;52.260;4.728;2023-11-22T14:29:28;7.95;;;4.93;;
7487;SDS011;3785;52.260;4.728;2023-11-22T14:32:49;9.55;;;5.15;;
7487;SDS011;3785;52.260;4.728;2023-11-22T14:36:10;8.77;;;5.60;;
7487;SDS011;3785;52.260;4.728;2023-11-22T14:39:31;9.02;;;5.53;;
7487;SDS011;3785;52.260;4.728;2023-11-22T14:42:53;8.25;;;5.43;;
7487;SDS011;3785;52.260;4.728;2023-11-22T14:46:14;9.93;;;6.25;;
7487;SDS011;3785;52.260;4.728;2023-11-22T14:49:34;9.43;;;5.70;;
7487;SDS011;3785;52.260;4.728;2023-11-22T14:52:55;11.80;;;6.15;;
7487;SDS011;3785;52.260;4.728;2023-11-22T14:56:16;11.77;;;6.80;;
7487;SDS011;3785;52.260;4.728;2023-11-22T14:59:37;8.70;;;5.72;;
7487;SDS011;3785;52.260;4.728;2023-11-22T15:02:58;10.35;;;5.75;;
7487;SDS011;3785;52.260;4.728;2023-11-22T15:06:20;11.65;;;6.25;;
7487;SDS011;3785;52.260;4.728;2023-11-22T15:09:41;10.77;;;6.35;;
7487;SDS011;3785;52.260;4.728;2023-11-22T15:13:01;9.65;;;5.85;;
7487;SDS011;3785;52.260;4.728;2023-11-22T15:16:22;10.95;;;6.15;;
7487;SDS011;3785;52.260;4.728;2023-11-22T15:19:43;12.57;;;5.88;;
7487;SDS011;3785;52.260;4.728;2023-11-22T15:23:04;8.60;;;5.47;;
7487;SDS011;3785;52.260;4.728;2023-11-22T15:26:25;11.25;;;5.55;;
7487;SDS011;3785;52.260;4.728;2023-11-22T15:29:47;13.73;;;6.63;;
7487;SDS011;3785;52.260;4.728;2023-11-22T15:33:07;10.35;;;5.80;;
7487;SDS011;3785;52.260;4.728;2023-11-22T15:36:29;11.13;;;5.88;;
7487;SDS011;3785;52.260;4.728;2023-11-22T15:39:49;13.80;;;6.53;;
7487;SDS011;3785;52.260;4.728;2023-11-22T15:43:10;11.80;;;6.22;;
7487;SDS011;3785;52.260;4.728;2023-11-22T15:46:32;12.43;;;6.65;;
7487;SDS011;3785;52.260;4.728;2023-11-22T15:49:52;11.18;;;6.68;;
7487;SDS011;3785;52.260;4.728;2023-11-22T15:53:16;8.77;;;5.28;;
7487;SDS011;3785;52.260;4.728;2023-11-22T15:56:37;10.60;;;6.38;;
7487;SDS011;3785;52.260;4.728;2023-11-22T15:59:57;10.93;;;6.35;;
7487;SDS011;3785;52.260;4.728;2023-11-22T16:03:18;10.70;;;6.18;;
7487;SDS011;3785;52.260;4.728;2023-11-22T16:06:38;12.05;;;6.78;;
7487;SDS011;3785;52.260;4.728;2023-11-22T16:09:59;11.40;;;6.95;;
7487;SDS011;3785;52.260;4.728;2023-11-22T16:13:20;15.43;;;8.30;;
7487;SDS011;3785;52.260;4.728;2023-11-22T16:16:41;15.50;;;7.53;;
7487;SDS011;3785;52.260;4.728;2023-11-22T16:20:03;13.18;;;6.90;;
7487;SDS011;3785;52.260;4.728;2023-11-22T16:23:30;11.98;;;6.75;;
7487;SDS011;3785;52.260;4.728;2023-11-22T16:26:51;12.32;;;6.95;;
7487;SDS011;3785;52.260;4.728;2023-11-22T16:30:12;12.43;;;6.95;;
7487;SDS011;3785;52.260;4.728;2023-11-22T16:33:33;12.75;;;7.10;;
7487;SDS011;3785;52.260;4.728;2023-11-22T16:36:53;17.42;;;8.43;;
7487;SDS011;3785;52.260;4.728;2023-11-22T16:40:14;15.55;;;7.45;;
7487;SDS011;3785;52.260;4.728;2023-11-22T16:43:34;15.70;;;8.38;;
7487;SDS011;3785;52.260;4.728;2023-11-22T16:46:55;13.57;;;8.27;;
7487;SDS011;3785;52.260;4.728;2023-11-22T16:50:15;14.43;;;8.18;;
7487;SDS011;3785;52.260;4.728;2023-11-22T16:53:38;14.88;;;7.97;;
7487;SDS011;3785;52.260;4.728;2023-11-22T16:57:00;13.18;;;7.95;;
7487;SDS011;3785;52.260;4.728;2023-11-22T17:00:20;17.92;;;8.50;;
7487;SDS011;3785;52.260;4.728;2023-11-22T17:03:42;15.25;;;7.88;;
7487;SDS011;3785;52.260;4.728;2023-11-22T17:07:05;14.05;;;8.05;;
7487;SDS011;3785;52.260;4.728;2023-11-22T17:10:25;17.70;;;9.23;;
7487;SDS011;3785;52.260;4.728;2023-11-22T17:13:46;15.55;;;9.43;;
7487;SDS011;3785;52.260;4.728;2023-11-22T17:17:06;18.23;;;9.25;;
7487;SDS011;3785;52.260;4.728;2023-11-22T17:20:27;16.33;;;8.68;;
7487;SDS011;3785;52.260;4.728;2023-11-22T17:23:48;17.27;;;8.70;;
7487;SDS011;3785;52.260;4.728;2023-11-22T17:27:08;18.77;;;9.70;;
7487;SDS011;3785;52.260;4.728;2023-11-22T17:30:29;17.30;;;9.50;;
7487;SDS011;3785;52.260;4.728;2023-11-22T17:33:50;18.50;;;9.25;;
7487;SDS011;3785;52.260;4.728;2023-11-22T17:37:11;15.27;;;9.15;;
7487;SDS011;3785;52.260;4.728;2023-11-22T17:40:31;14.32;;;8.85;;
7487;SDS011;3785;52.260;4.728;2023-11-22T17:43:52;15.13;;;8.85;;
7487;SDS011;3785;52.260;4.728;2023-11-22T17:47:13;15.82;;;8.90;;
7487;SDS011;3785;52.260;4.728;2023-11-22T17:50:34;15.18;;;9.18;;
7487;SDS011;3785;52.260;4.728;2023-11-22T17:53:55;16.70;;;8.05;;
7487;SDS011;3785;52.260;4.728;2023-11-22T17:57:16;15.65;;;8.68;;
7487;SDS011;3785;52.260;4.728;2023-11-22T18:00:37;19.73;;;9.60;;
7487;SDS011;3785;52.260;4.728;2023-11-22T18:03:58;15.43;;;9.40;;
7487;SDS011;3785;52.260;4.728;2023-11-22T18:07:18;14.52;;;8.15;;
7487;SDS011;3785;52.260;4.728;2023-11-22T18:10:39;14.68;;;9.50;;
7487;SDS011;3785;52.260;4.728;2023-11-22T18:13:59;15.93;;;8.43;;
7487;SDS011;3785;52.260;4.728;2023-11-22T18:17:21;14.40;;;8.75;;
7487;SDS011;3785;52.260;4.728;2023-11-22T18:20:43;12.70;;;7.45;;
7487;SDS011;3785;52.260;4.728;2023-11-22T18:24:05;13.07;;;7.57;;
7487;SDS011;3785;52.260;4.728;2023-11-22T18:27:26;16.25;;;6.85;;
7487;SDS011;3785;52.260;4.728;2023-11-22T18:30:46;12.45;;;7.32;;
7487;SDS011;3785;52.260;4.728;2023-11-22T18:34:07;15.25;;;8.05;;
7487;SDS011;3785;52.260;4.728;2023-11-22T18:37:27;12.73;;;7.00;;
7487;SDS011;3785;52.260;4.728;2023-11-22T18:40:48;10.88;;;6.45;;
7487;SDS011;3785;52.260;4.728;2023-11-22T18:44:09;12.25;;;6.93;;
7487;SDS011;3785;52.260;4.728;2023-11-22T18:47:30;12.68;;;7.18;;
7487;SDS011;3785;52.260;4.728;2023-11-22T18:50:51;11.02;;;6.43;;
7487;SDS011;3785;52.260;4.728;2023-11-22T18:54:12;12.70;;;6.72;;
7487;SDS011;3785;52.260;4.728;2023-11-22T18:57:32;13.00;;;6.72;;
7487;SDS011;3785;52.260;4.728;2023-11-22T19:00:53;10.52;;;6.35;;
7487;SDS011;3785;52.260;4.728;2023-11-22T19:04:14;13.32;;;6.85;;
7487;SDS011;3785;52.260;4.728;2023-11-22T19:07:35;12.88;;;7.03;;
7487;SDS011;3785;52.260;4.728;2023-11-22T19:10:55;12.32;;;6.57;;
7487;SDS011;3785;52.260;4.728;2023-11-22T19:14:16;10.65;;;5.80;;
7487;SDS011;3785;52.260;4.728;2023-11-22T19:17:37;11.02;;;6.53;;
7487;SDS011;3785;52.260;4.728;2023-11-22T19:20:57;12.88;;;6.50;;
7487;SDS011;3785;52.260;4.728;2023-11-22T19:24:23;10.57;;;5.35;;
7487;SDS011;3785;52.260;4.728;2023-11-22T19:27:43;9.13;;;5.50;;
7487;SDS011;3785;52.260;4.728;2023-11-22T19:31:08;8.90;;;5.50;;
7487;SDS011;3785;52.260;4.728;2023-11-22T19:34:29;12.23;;;5.68;;
7487;SDS011;3785;52.260;4.728;2023-11-22T19:37:50;10.55;;;6.25;;
7487;SDS011;3785;52.260;4.728;2023-11-22T19:41:11;11.25;;;6.03;;
7487;SDS011;3785;52.260;4.728;2023-11-22T19:44:33;11.70;;;6.13;;
7487;SDS011;3785;52.260;4.728;2023-11-22T19:47:53;11.52;;;5.93;;
7487;SDS011;3785;52.260;4.728;2023-11-22T19:51:15;10.27;;;5.93;;
7487;SDS011;3785;52.260;4.728;2023-11-22T19:54:36;9.45;;;5.80;;
7487;SDS011;3785;52.260;4.728;2023-11-22T19:57:56;8.23;;;4.82;;
7487;SDS011;3785;52.260;4.728;2023-11-22T20:01:19;9.60;;;4.90;;
7487;SDS011;3785;52.260;4.728;2023-11-22T20:04:39;11.85;;;5.40;;
7487;SDS011;3785;52.260;4.728;2023-11-22T20:08:01;8.48;;;5.07;;
7487;SDS011;3785;52.260;4.728;2023-11-22T20:11:21;8.68;;;5.50;;
7487;SDS011;3785;52.260;4.728;2023-11-22T20:14:42;10.55;;;4.45;;
7487;SDS011;3785;52.260;4.728;2023-11-22T20:18:03;10.60;;;5.30;;
7487;SDS011;3785;52.260;4.728;2023-11-22T20:21:23;7.35;;;3.47;;
7487;SDS011;3785;52.260;4.728;2023-11-22T20:24:44;4.90;;;2.00;;
7487;SDS011;3785;52.260;4.728;2023-11-22T20:28:05;5.78;;;2.38;;
7487;SDS011;3785;52.260;4.728;2023-11-22T20:31:25;5.30;;;2.55;;
7487;SDS011;3785;52.260;4.728;2023-11-22T20:34:46;4.30;;;2.05;;
7487;SDS011;3785;52.260;4.728;2023-11-22T20:38:07;5.97;;;2.10;;
7487;SDS011;3785;52.260;4.728;2023-11-22T20:41:28;5.43;;;2.35;;
7487;SDS011;3785;52.260;4.728;2023-11-22T20:44:48;3.60;;;2.20;;